createdAt,value
2022-11-05T00:00:20.306Z,4.16
2022-11-05T00:01:41.770Z,3.53
2022-11-05T00:03:03.053Z,4.09
2022-11-05T00:04:11.132Z,4.05
2022-11-05T00:05:32.617Z,4.64
2022-11-05T00:06:53.664Z,4.68
2022-11-05T00:08:15.941Z,3.49
2022-11-05T00:09:32.218Z,3.37
2022-11-05T00:10:37.614Z,3.55
2022-11-05T00:11:58.848Z,3.43
2022-11-05T00:13:20.368Z,5.18
2022-11-05T00:14:41.626Z,3.86
2022-11-05T00:16:03.491Z,3.44
2022-11-05T00:17:06.328Z,4.16
2022-11-05T00:18:09.152Z,4.28
2022-11-05T00:19:12.900Z,4.39
2022-11-05T00:20:17.564Z,4.06
2022-11-05T00:21:38.682Z,4.01
2022-11-05T00:23:00.026Z,3.57
2022-11-05T00:24:24.272Z,3.73
2022-11-05T00:25:31.362Z,3.64
2022-11-05T00:26:34.243Z,3.50
2022-11-05T00:27:37.425Z,4.21
2022-11-05T00:28:43.190Z,4.25
2022-11-05T00:29:46.193Z,4.28
2022-11-05T00:30:49.270Z,3.83
2022-11-05T00:31:52.647Z,3.91
2022-11-05T00:32:59.084Z,4.27
2022-11-05T00:34:02.367Z,4.11
2022-11-05T00:35:07.543Z,3.37
2022-11-05T00:36:11.389Z,3.89
2022-11-05T00:37:15.222Z,3.84
2022-11-05T00:38:18.459Z,4.29
2022-11-05T00:39:21.310Z,3.93
2022-11-05T00:40:24.147Z,3.78
2022-11-05T00:41:27.309Z,4.07
2022-11-05T00:42:48.517Z,4.07
2022-11-05T00:44:10.965Z,3.63
2022-11-05T00:45:13.849Z,3.76
2022-11-05T00:46:17.233Z,3.99
2022-11-05T00:47:38.799Z,4.08
2022-11-05T00:49:00.221Z,4.25
2022-11-05T00:50:03.468Z,4.15
2022-11-05T00:51:06.995Z,4.18
2022-11-05T00:52:28.087Z,4.44
2022-11-05T00:53:30.937Z,4.13
2022-11-05T00:54:33.807Z,4.57
2022-11-05T00:55:39.528Z,4.09
2022-11-05T00:56:42.383Z,4.12
2022-11-05T00:57:45.217Z,4.71
2022-11-05T00:58:48.480Z,4.87
2022-11-05T00:59:51.392Z,4.64
2022-11-05T01:00:57.883Z,4.14
2022-11-05T01:02:00.941Z,4.61
2022-11-05T01:03:15.804Z,4.07
2022-11-05T01:04:20.080Z,4.07
2022-11-05T01:05:22.931Z,4.09
2022-11-05T01:06:25.743Z,4.49
2022-11-05T01:07:28.622Z,4.56
2022-11-05T01:08:31.464Z,4.58
2022-11-05T01:09:34.513Z,3.99
2022-11-05T01:10:43.373Z,4.28
2022-11-05T01:11:46.403Z,4.07
2022-11-05T01:12:49.322Z,4.67
2022-11-05T01:13:52.403Z,4.55
2022-11-05T01:14:55.326Z,4.57
2022-11-05T01:16:01.791Z,4.94
2022-11-05T01:17:04.885Z,4.63
2022-11-05T01:18:08.103Z,4.38
2022-11-05T01:19:11.934Z,4.92
2022-11-05T01:20:15.909Z,4.05
2022-11-05T01:21:18.861Z,4.56
2022-11-05T01:22:21.684Z,3.96
2022-11-05T01:23:24.592Z,4.47
2022-11-05T01:24:27.526Z,4.30
2022-11-05T01:25:30.439Z,4.67
2022-11-05T01:26:33.458Z,4.65
2022-11-05T01:27:37.581Z,4.95
2022-11-05T01:28:40.519Z,4.55
2022-11-05T01:29:43.659Z,5.30
2022-11-05T01:30:48.268Z,4.48
2022-11-05T01:31:51.444Z,4.76
2022-11-05T01:32:54.437Z,5.09
2022-11-05T01:33:59.029Z,4.64
2022-11-05T01:35:03.178Z,3.98
2022-11-05T01:36:06.542Z,4.68
2022-11-05T01:37:09.475Z,4.62
2022-11-05T01:38:12.294Z,5.37
2022-11-05T01:39:15.385Z,4.43
2022-11-05T01:40:21.847Z,4.71
2022-11-05T01:41:24.700Z,4.72
2022-11-05T01:42:30.197Z,4.86
2022-11-05T01:43:54.696Z,5.28
2022-11-05T01:45:01.101Z,4.67
2022-11-05T01:46:03.975Z,5.39
2022-11-05T01:47:09.673Z,4.99
2022-11-05T01:48:16.124Z,5.78
2022-11-05T01:49:28.504Z,5.72
2022-11-05T01:50:35.090Z,5.81
2022-11-05T01:51:39.442Z,5.55
2022-11-05T01:52:42.315Z,6.02
2022-11-05T01:54:00.742Z,5.82
2022-11-05T01:55:05.080Z,6.34
2022-11-05T01:56:11.673Z,5.54
2022-11-05T01:57:15.216Z,5.97
2022-11-05T01:58:21.318Z,5.22
2022-11-05T01:59:30.391Z,5.25
2022-11-05T02:00:35.784Z,5.07
2022-11-05T02:01:39.121Z,5.29
2022-11-05T02:02:43.673Z,5.28
2022-11-05T02:03:49.525Z,4.86
2022-11-05T02:04:56.332Z,5.27
2022-11-05T02:06:02.090Z,5.76
2022-11-05T02:07:07.108Z,6.02
2022-11-05T02:08:14.134Z,6.46
2022-11-05T02:09:20.539Z,5.94
2022-11-05T02:10:23.708Z,6.37
2022-11-05T02:11:26.565Z,6.28
2022-11-05T02:12:30.412Z,6.39
2022-11-05T02:13:33.366Z,6.16
2022-11-05T02:14:37.195Z,5.44
2022-11-05T02:15:52.437Z,5.75
2022-11-05T02:17:22.079Z,5.76
2022-11-05T02:18:40.747Z,5.81
2022-11-05T02:20:02.433Z,6.00
2022-11-05T02:21:34.378Z,5.38
2022-11-05T02:23:11.546Z,5.37
2022-11-05T02:24:39.499Z,5.32
2022-11-05T02:26:01.276Z,6.11
2022-11-05T02:27:19.464Z,6.04
2022-11-05T02:28:34.859Z,5.73
2022-11-05T02:30:07.201Z,6.08
2022-11-05T02:31:19.640Z,6.17
2022-11-05T02:33:56.270Z,6.32
2022-11-05T02:35:27.045Z,6.79
2022-11-05T02:36:39.475Z,6.43
2022-11-05T02:37:54.806Z,6.01
2022-11-05T02:39:17.881Z,7.33
2022-11-05T02:40:42.348Z,7.47
2022-11-05T02:42:03.515Z,7.31
2022-11-05T02:43:15.924Z,8.01
2022-11-05T02:44:25.157Z,7.11
2022-11-05T02:45:34.768Z,6.96
2022-11-05T02:46:46.972Z,7.60
2022-11-05T02:48:05.847Z,7.24
2022-11-05T02:49:28.547Z,7.03
2022-11-05T02:50:43.821Z,7.29
2022-11-05T02:51:58.086Z,7.80
2022-11-05T02:53:13.703Z,7.44
2022-11-05T02:54:35.625Z,7.47
2022-11-05T02:55:42.101Z,7.15
2022-11-05T02:56:47.948Z,7.64
2022-11-05T02:57:50.802Z,9.02
2022-11-05T02:58:53.654Z,7.66
2022-11-05T03:00:06.101Z,6.99
2022-11-05T03:01:11.914Z,7.32
2022-11-05T03:02:14.947Z,7.37
2022-11-05T03:03:21.575Z,8.19
2022-11-05T03:04:25.825Z,7.56
2022-11-05T03:05:32.248Z,7.76
2022-11-05T03:07:10.352Z,8.07
2022-11-05T03:08:16.745Z,7.57
2022-11-05T03:09:32.536Z,7.17
2022-11-05T03:10:42.248Z,7.52
2022-11-05T03:12:03.206Z,7.55
2022-11-05T03:13:24.585Z,9.00
2022-11-05T03:14:53.582Z,8.81
2022-11-05T03:16:00.144Z,9.67
2022-11-05T03:17:13.183Z,9.08
2022-11-05T03:18:26.001Z,7.54
2022-11-05T03:19:32.516Z,7.93
2022-11-05T03:20:39.119Z,8.19
2022-11-05T03:21:55.817Z,7.89
2022-11-05T03:23:26.493Z,7.98
2022-11-05T03:24:35.362Z,7.86
2022-11-05T03:25:47.881Z,8.48
2022-11-05T03:26:57.886Z,8.83
2022-11-05T03:28:04.279Z,8.99
2022-11-05T03:29:10.669Z,7.78
2022-11-05T03:30:18.239Z,8.22
2022-11-05T03:31:24.809Z,8.34
2022-11-05T03:32:31.364Z,8.32
2022-11-05T03:33:38.357Z,7.55
2022-11-05T03:34:54.012Z,8.36
2022-11-05T03:36:00.531Z,8.36
2022-11-05T03:37:05.887Z,8.02
2022-11-05T03:38:24.297Z,8.07
2022-11-05T03:39:31.000Z,7.66
2022-11-05T03:40:37.153Z,7.63
2022-11-05T03:41:43.163Z,8.28
2022-11-05T03:42:49.853Z,8.56
2022-11-05T03:43:56.881Z,8.46
2022-11-05T03:45:03.603Z,7.97
2022-11-05T03:46:22.178Z,8.82
2022-11-05T03:47:32.217Z,8.13
2022-11-05T03:48:38.701Z,8.69
2022-11-05T03:49:45.184Z,8.64
2022-11-05T03:51:00.732Z,8.89
2022-11-05T03:52:09.845Z,8.72
2022-11-05T03:53:16.287Z,9.38
2022-11-05T03:54:19.057Z,8.96
2022-11-05T03:55:25.438Z,8.57
2022-11-05T03:56:34.622Z,8.71
2022-11-05T03:57:41.000Z,9.28
2022-11-05T03:58:45.281Z,9.17
2022-11-05T03:59:50.124Z,9.40
2022-11-05T04:00:53.085Z,9.42
2022-11-05T04:01:56.732Z,8.98
2022-11-05T04:02:59.992Z,8.61
2022-11-05T04:04:04.902Z,9.18
2022-11-05T04:05:08.152Z,9.03
2022-11-05T04:06:30.496Z,9.09
2022-11-05T04:07:51.877Z,8.26
2022-11-05T04:09:13.317Z,9.30
2022-11-05T04:10:35.298Z,9.86
2022-11-05T04:11:56.665Z,9.02
2022-11-05T04:13:18.185Z,8.71
2022-11-05T04:14:21.687Z,8.97
2022-11-05T04:15:25.059Z,9.35
2022-11-05T04:16:46.455Z,9.14
2022-11-05T04:17:49.377Z,9.13
2022-11-05T04:18:52.508Z,8.54
2022-11-05T04:20:14.374Z,9.80
2022-11-05T04:21:35.895Z,9.33
2022-11-05T04:22:57.341Z,9.49
2022-11-05T04:24:09.495Z,9.91
2022-11-05T04:25:13.628Z,9.56
2022-11-05T04:26:16.454Z,10.18
2022-11-05T04:27:19.270Z,9.79
2022-11-05T04:28:23.969Z,8.97
2022-11-05T04:29:37.984Z,9.43
2022-11-05T04:30:41.268Z,9.52
2022-11-05T04:31:44.312Z,9.46
2022-11-05T04:33:07.705Z,9.88
2022-11-05T04:34:10.827Z,9.43
2022-11-05T04:35:13.959Z,10.94
2022-11-05T04:36:19.073Z,9.27
2022-11-05T04:37:22.124Z,9.68
2022-11-05T04:38:24.936Z,9.19
2022-11-05T04:39:27.748Z,9.50
2022-11-05T04:40:30.704Z,9.24
2022-11-05T04:41:33.640Z,9.86
2022-11-05T04:42:36.593Z,9.79
2022-11-05T04:43:39.560Z,9.22
2022-11-05T04:44:42.414Z,10.18
2022-11-05T04:45:45.536Z,9.50
2022-11-05T04:46:48.469Z,9.62
2022-11-05T04:47:51.550Z,10.06
2022-11-05T04:48:54.454Z,10.04
2022-11-05T04:49:57.401Z,9.48
2022-11-05T04:51:00.289Z,10.38
2022-11-05T04:52:03.265Z,10.96
2022-11-05T04:53:06.209Z,10.64
2022-11-05T04:54:09.188Z,11.59
2022-11-05T04:55:12.340Z,11.92
2022-11-05T04:56:21.766Z,11.39
2022-11-05T04:57:24.724Z,12.59
2022-11-05T04:58:27.787Z,13.93
2022-11-05T04:59:30.723Z,12.75
2022-11-05T05:00:33.578Z,12.74
2022-11-05T05:01:36.748Z,11.83
2022-11-05T05:02:39.795Z,13.07
2022-11-05T05:03:43.205Z,14.88
2022-11-05T05:04:46.030Z,14.47
2022-11-05T05:05:50.260Z,15.01
2022-11-05T05:06:53.832Z,14.74
2022-11-05T05:08:04.281Z,14.39
2022-11-05T05:09:07.672Z,14.32
2022-11-05T05:10:11.377Z,14.76
2022-11-05T05:11:16.657Z,14.61
2022-11-05T05:12:19.819Z,13.51
2022-11-05T05:13:22.759Z,14.18
2022-11-05T05:14:25.789Z,13.84
2022-11-05T05:15:28.863Z,14.59
2022-11-05T05:16:32.174Z,13.39
2022-11-05T09:10:01.910Z,22.09
2022-11-05T09:11:05.575Z,19.12
2022-11-05T09:12:12.988Z,20.04
2022-11-05T09:13:18.769Z,19.84
2022-11-05T09:14:18.246Z,18.84
2022-11-05T09:15:22.641Z,19.51
2022-11-05T09:16:26.210Z,17.79
2022-11-05T09:17:29.354Z,18.53
2022-11-05T09:18:33.329Z,19.32
2022-11-05T09:19:39.789Z,18.13
2022-11-05T09:20:41.653Z,18.53
2022-11-05T09:21:44.812Z,18.16
2022-11-05T09:22:47.756Z,16.44
2022-11-05T09:23:50.683Z,17.65
2022-11-05T09:24:53.647Z,15.45
2022-11-05T09:25:56.608Z,16.26
2022-11-05T09:26:59.547Z,17.29
2022-11-05T09:29:27.975Z,17.69
2022-11-05T09:30:31.221Z,16.57
2022-11-05T09:31:34.124Z,16.60
2022-11-05T09:32:37.237Z,16.07
2022-11-05T09:33:40.870Z,15.48
2022-11-05T09:34:44.423Z,14.86
2022-11-05T09:35:47.263Z,15.10
2022-11-05T09:36:50.116Z,15.15
2022-11-05T09:37:58.202Z,14.84
2022-11-05T09:38:57.985Z,14.54
2022-11-05T09:40:01.120Z,14.86
2022-11-05T09:41:08.281Z,14.44
2022-11-05T09:42:14.779Z,14.20
2022-11-05T09:43:20.288Z,14.29
2022-11-05T09:44:29.762Z,13.33
2022-11-05T09:45:35.547Z,13.38
2022-11-05T09:46:50.997Z,13.82
2022-11-05T09:47:57.649Z,13.46
2022-11-05T09:49:06.847Z,14.33
2022-11-05T09:50:16.547Z,14.55
2022-11-05T09:51:23.895Z,13.69
2022-11-05T09:52:30.340Z,14.31
2022-11-05T09:53:36.380Z,13.76
2022-11-05T09:54:39.754Z,14.17
2022-11-05T09:55:45.770Z,14.09
2022-11-05T09:56:48.750Z,14.27
2022-11-05T09:58:00.902Z,14.39
2022-11-05T09:59:13.296Z,14.11
2022-11-05T10:00:17.075Z,13.26
2022-11-05T10:02:38.861Z,13.39
2022-11-05T10:03:45.434Z,13.94
2022-11-05T10:04:52.349Z,13.87
2022-11-05T10:05:58.910Z,13.79
2022-11-05T10:07:05.309Z,14.27
2022-11-05T10:08:23.224Z,14.68
2022-11-05T10:09:39.636Z,15.64
2022-11-05T10:10:49.043Z,15.02
2022-11-05T10:11:55.547Z,14.86
2022-11-05T10:13:07.714Z,15.01
2022-11-05T10:14:14.301Z,14.68
2022-11-05T10:15:23.713Z,14.14
2022-11-05T10:16:32.931Z,14.13
2022-11-05T10:17:39.280Z,13.86
2022-11-05T10:18:46.087Z,14.51
2022-11-05T10:19:55.967Z,15.57
2022-11-05T10:20:59.001Z,15.74
2022-11-05T10:22:10.737Z,15.10
2022-11-05T10:23:16.877Z,15.96
2022-11-05T10:24:21.012Z,15.34
2022-11-05T10:25:27.512Z,15.69
2022-11-05T10:26:30.476Z,15.46
2022-11-05T10:27:36.382Z,16.12
2022-11-05T10:28:39.438Z,16.50
2022-11-05T10:29:43.028Z,18.07
2022-11-05T10:30:48.785Z,17.98
2022-11-05T10:31:53.953Z,17.17
2022-11-05T10:33:00.197Z,19.31
2022-11-05T10:34:06.231Z,19.25
2022-11-05T10:35:12.687Z,18.39
2022-11-05T10:36:32.344Z,19.83
2022-11-05T10:37:40.629Z,18.68
2022-11-05T10:38:41.514Z,19.42
2022-11-05T10:39:44.356Z,17.92
2022-11-05T10:40:50.844Z,18.56
2022-11-05T10:42:18.241Z,19.93
2022-11-05T10:43:44.710Z,20.02
2022-11-05T10:44:54.334Z,18.87
2022-11-05T10:50:58.803Z,19.37
2022-11-05T10:52:05.251Z,20.59
2022-11-05T10:53:32.581Z,19.71
2022-11-05T10:54:36.004Z,20.36
2022-11-05T10:55:42.107Z,20.34
2022-11-05T10:56:45.594Z,22.32
2022-11-05T10:57:50.348Z,21.41
2022-11-05T10:58:56.296Z,22.64
2022-11-05T11:00:18.037Z,22.49
2022-11-05T11:01:22.862Z,21.53
2022-11-05T11:02:28.646Z,23.59
2022-11-05T11:03:46.541Z,24.01
2022-11-05T11:04:55.694Z,24.45
2022-11-05T11:06:03.946Z,25.07
2022-11-05T11:07:19.711Z,24.03
2022-11-05T11:08:25.562Z,27.15
2022-11-05T11:09:34.554Z,26.68
2022-11-05T11:10:43.976Z,25.09
2022-11-05T11:11:51.532Z,27.21
2022-11-05T11:12:56.711Z,25.00
2022-11-05T11:14:15.415Z,28.69
2022-11-05T11:15:25.566Z,26.26
2022-11-05T11:16:32.130Z,27.30
2022-11-05T11:17:35.030Z,26.06
2022-11-05T11:18:41.122Z,25.63
2022-11-05T11:19:44.677Z,24.69
2022-11-05T11:20:47.647Z,24.97
2022-11-05T11:22:06.252Z,26.57
2022-11-05T11:23:15.115Z,30.76
2022-11-05T11:24:24.624Z,30.72
2022-11-05T11:25:34.980Z,29.25
2022-11-05T11:26:39.974Z,31.43
2022-11-05T11:27:42.917Z,30.85
2022-11-05T11:28:49.135Z,30.17
2022-11-05T11:29:59.401Z,28.62
2022-11-05T11:31:14.769Z,27.31
2022-11-05T11:32:20.037Z,29.90
2022-11-05T11:33:26.963Z,32.21
2022-11-05T11:34:38.821Z,31.05
2022-11-05T11:35:47.441Z,29.42
2022-11-05T11:41:55.995Z,25.02
2022-11-05T11:43:02.416Z,27.25
2022-11-05T11:44:14.690Z,26.63
2022-11-05T11:45:30.277Z,28.16
2022-11-05T11:46:34.771Z,25.99
2022-11-05T11:47:41.359Z,25.99
2022-11-05T11:48:47.090Z,27.70
2022-11-05T11:49:59.143Z,29.96
2022-11-05T11:51:17.682Z,28.22
2022-11-05T11:52:30.424Z,27.27
2022-11-05T11:53:35.076Z,25.43
2022-11-05T11:54:38.286Z,27.17
2022-11-05T11:55:43.213Z,26.13
2022-11-05T11:56:47.974Z,25.94
2022-11-05T11:57:54.050Z,27.52
2022-11-05T11:58:59.861Z,29.53
2022-11-05T12:00:08.715Z,28.26
2022-11-05T12:01:28.372Z,28.12
2022-11-05T12:07:16.946Z,24.67
2022-11-05T12:08:50.692Z,23.28
2022-11-05T12:10:13.691Z,22.91
2022-11-05T12:11:28.900Z,22.34
2022-11-05T12:12:51.897Z,21.46
2022-11-05T12:14:01.794Z,20.37
2022-11-05T12:15:26.583Z,19.93
2022-11-05T12:16:49.156Z,19.26
2022-11-05T12:18:04.874Z,18.96
2022-11-05T12:19:41.746Z,18.79
2022-11-05T12:21:00.182Z,18.62
2022-11-05T12:22:24.614Z,18.21
2022-11-05T12:23:39.859Z,19.16
2022-11-05T12:24:57.881Z,18.74
2022-11-05T12:26:16.176Z,18.57
2022-11-05T12:27:25.800Z,18.38
2022-11-05T12:28:36.231Z,18.38
2022-11-05T12:29:51.891Z,18.21
2022-11-05T12:31:04.067Z,17.98
2022-11-05T12:32:30.483Z,17.69
2022-11-05T12:33:48.658Z,16.49
2022-11-05T12:35:01.681Z,17.22
2022-11-05T12:36:21.616Z,16.66
2022-11-05T12:37:43.702Z,17.51
2022-11-05T12:39:06.607Z,17.48
2022-11-05T12:40:28.501Z,16.89
2022-11-05T12:41:59.342Z,16.29
2022-11-05T12:43:11.749Z,16.52
2022-11-05T12:44:32.334Z,17.12
2022-11-05T12:45:47.802Z,17.51
2022-11-05T12:47:03.505Z,17.67
2022-11-05T12:48:23.298Z,16.69
2022-11-05T12:49:59.649Z,17.57
2022-11-05T12:51:06.226Z,18.75
2022-11-05T12:52:21.905Z,17.75
2022-11-05T12:53:34.322Z,17.70
2022-11-05T12:54:52.719Z,16.26
2022-11-05T12:55:59.321Z,17.36
2022-11-05T12:57:03.892Z,18.03
2022-11-05T12:58:13.093Z,17.31
2022-11-05T12:59:34.592Z,18.49
2022-11-05T13:00:41.123Z,17.74
2022-11-05T13:01:47.900Z,18.21
2022-11-05T13:02:54.442Z,17.84
2022-11-05T13:04:01.009Z,17.85
2022-11-05T13:05:38.053Z,18.58
2022-11-05T13:06:44.782Z,19.69
2022-11-05T13:08:00.518Z,19.73
2022-11-05T13:09:16.947Z,19.89
2022-11-05T13:10:38.339Z,20.03
2022-11-05T13:11:56.817Z,20.03
2022-11-05T13:13:06.485Z,19.46
2022-11-05T13:14:15.807Z,19.24
2022-11-05T13:15:28.239Z,20.31
2022-11-05T13:16:37.388Z,20.77
2022-11-05T13:17:56.256Z,21.49
2022-11-05T13:19:14.859Z,21.34
2022-11-05T13:20:21.444Z,22.48
2022-11-05T13:21:28.139Z,21.61
2022-11-05T13:22:46.209Z,23.40
2022-11-05T13:24:01.933Z,23.64
2022-11-05T13:25:11.447Z,25.24
2022-11-05T13:26:21.628Z,23.70
2022-11-05T13:27:56.985Z,24.17
2022-11-05T13:29:15.345Z,24.08
2022-11-05T13:30:21.886Z,24.61
2022-11-05T13:31:31.465Z,23.27
2022-11-05T13:32:37.967Z,25.14
2022-11-05T13:33:46.775Z,24.68
2022-11-05T13:34:51.957Z,25.38
2022-11-05T13:36:16.658Z,24.44
2022-11-05T13:37:30.555Z,24.65
2022-11-05T13:40:01.077Z,23.22
2022-11-05T13:41:31.497Z,23.48
2022-11-05T13:42:49.933Z,22.36
2022-11-05T13:44:02.370Z,21.59
2022-11-05T13:45:21.084Z,22.22
2022-11-05T13:46:33.688Z,21.89
2022-11-05T13:48:01.553Z,21.89
2022-11-05T13:49:18.322Z,21.62
2022-11-05T13:50:37.078Z,22.25
2022-11-05T13:51:51.992Z,21.18
2022-11-05T13:53:15.111Z,21.74
2022-11-05T13:54:40.855Z,23.33
2022-11-05T13:55:58.998Z,22.87
2022-11-05T13:57:14.649Z,22.34
2022-11-05T13:58:45.060Z,21.42
2022-11-05T14:00:14.443Z,22.07
2022-11-05T14:01:36.035Z,21.20
2022-11-05T14:02:42.595Z,21.64
2022-11-05T14:03:49.192Z,20.74
2022-11-05T14:05:01.418Z,21.41
2022-11-05T14:06:06.174Z,20.96
2022-11-05T14:07:19.076Z,21.41
2022-11-05T14:08:25.597Z,22.05
2022-11-05T14:09:28.461Z,22.00
2022-11-05T14:10:40.305Z,21.00
2022-11-05T14:11:46.750Z,21.98
2022-11-05T14:12:52.831Z,21.75
2022-11-05T14:14:05.092Z,21.75
2022-11-05T14:15:17.665Z,21.83
2022-11-05T14:16:23.052Z,22.68
2022-11-05T14:17:32.601Z,22.31
2022-11-05T14:18:39.245Z,22.69
2022-11-05T14:20:05.311Z,23.93
2022-11-05T14:21:32.325Z,24.62
2022-11-05T14:22:41.209Z,22.93
2022-11-05T14:23:49.762Z,24.02
2022-11-05T14:24:52.901Z,24.51
2022-11-05T14:26:18.663Z,23.37
2022-11-05T17:02:12.596Z,24.71
2022-11-05T17:03:15.991Z,26.46
2022-11-05T17:04:19.022Z,24.62
2022-11-05T17:05:28.227Z,23.12
2022-11-05T17:06:31.521Z,22.65
2022-11-05T17:07:38.568Z,22.66
2022-11-05T17:08:39.780Z,21.48
2022-11-05T17:09:42.889Z,21.62
2022-11-05T17:10:45.999Z,20.90
2022-11-05T17:11:48.884Z,21.49
2022-11-05T17:12:52.156Z,19.37
2022-11-05T17:13:56.242Z,19.83
2022-11-05T17:14:59.442Z,20.46
2022-11-05T17:16:02.769Z,20.09
2022-11-05T17:17:05.956Z,19.87
2022-11-05T17:18:16.946Z,20.39
2022-11-05T17:19:15.926Z,19.10
2022-11-05T17:20:39.865Z,19.83
2022-11-05T17:21:39.612Z,19.83
2022-11-05T17:22:42.588Z,21.72
2022-11-05T17:23:45.666Z,20.52
2022-11-05T17:24:48.705Z,21.71
2022-11-05T17:25:54.525Z,21.25
2022-11-05T17:26:57.623Z,20.66
2022-11-05T17:28:01.342Z,20.88
2022-11-05T17:29:04.553Z,19.08
2022-11-05T17:30:09.115Z,19.41
2022-11-05T17:31:17.265Z,18.62
2022-11-05T17:32:20.502Z,18.45
2022-11-05T17:33:23.845Z,19.72
2022-11-05T17:34:27.041Z,20.20
2022-11-05T17:35:30.224Z,19.24
2022-11-05T17:36:33.299Z,19.21
2022-11-05T17:37:36.256Z,19.68
2022-11-05T17:38:39.405Z,18.42
2022-11-05T17:39:42.438Z,19.06
2022-11-05T17:40:45.556Z,17.91
2022-11-05T17:41:48.723Z,19.00
2022-11-05T17:42:52.228Z,19.80
2022-11-05T17:43:56.921Z,21.11
2022-11-05T17:45:00.226Z,20.59
2022-11-05T17:46:09.042Z,20.08
2022-11-05T17:47:13.156Z,18.69
2022-11-05T17:48:18.050Z,17.78
2022-11-05T17:49:21.570Z,17.95
2022-11-05T17:50:25.140Z,17.43
2022-11-05T17:51:28.220Z,16.59
2022-11-05T17:52:33.017Z,17.82
2022-11-05T17:53:36.892Z,16.96
2022-11-05T17:54:39.996Z,17.34
2022-11-05T17:55:44.924Z,16.20
2022-11-05T17:56:48.671Z,15.66
2022-11-05T17:57:54.398Z,15.29
2022-11-05T17:58:59.939Z,16.12
2022-11-05T18:00:04.964Z,16.12
2022-11-05T18:01:28.674Z,14.16
2022-11-05T18:02:33.538Z,15.17
2022-11-05T18:03:36.939Z,14.62
2022-11-05T18:04:40.117Z,14.72
2022-11-05T18:05:43.536Z,15.81
2022-11-05T18:06:46.891Z,16.21
2022-11-05T18:07:50.541Z,17.66
2022-11-05T18:08:53.668Z,16.44
2022-11-05T18:09:57.048Z,15.90
2022-11-05T18:11:00.126Z,16.56
2022-11-05T18:12:04.567Z,14.90
2022-11-05T18:13:07.705Z,14.51
2022-11-05T18:14:11.065Z,15.50
2022-11-05T18:15:14.578Z,13.71
2022-11-05T18:16:17.513Z,13.73
2022-11-05T18:17:20.666Z,14.78
2022-11-05T18:18:23.754Z,15.00
2022-11-05T18:19:27.525Z,15.41
2022-11-05T18:20:31.014Z,17.16
2022-11-05T18:21:34.176Z,15.43
2022-11-05T18:22:39.162Z,14.56
2022-11-05T18:23:42.673Z,15.59
2022-11-05T18:24:48.537Z,13.99
2022-11-05T18:25:51.771Z,14.73
2022-11-05T18:26:55.817Z,13.78
2022-11-05T18:27:59.087Z,13.33
2022-11-05T18:29:03.956Z,14.29
2022-11-05T18:30:10.220Z,12.46
2022-11-05T18:31:18.395Z,13.21
2022-11-05T18:32:21.357Z,13.74
2022-11-05T18:33:24.561Z,13.65
2022-11-05T18:34:27.423Z,13.32
2022-11-05T18:35:30.662Z,13.40
2022-11-05T18:36:33.898Z,13.52
2022-11-05T18:37:38.545Z,13.45
2022-11-05T18:38:41.661Z,12.51
2022-11-05T18:39:44.959Z,12.61
2022-11-05T18:40:48.052Z,12.78
2022-11-05T18:41:51.163Z,13.18
2022-11-05T18:42:54.440Z,14.09
2022-11-05T18:44:02.480Z,13.37
2022-11-05T18:45:06.646Z,13.87
2022-11-05T18:46:23.778Z,13.22
2022-11-05T18:47:16.088Z,13.69
2022-11-05T18:48:19.189Z,14.21
2022-11-05T18:49:22.303Z,15.91
2022-11-05T18:50:26.183Z,15.24
2022-11-05T18:51:29.288Z,15.05
2022-11-05T18:52:32.510Z,15.62
2022-11-05T18:53:35.569Z,15.73
2022-11-05T18:54:38.690Z,15.83
2022-11-05T18:55:41.788Z,15.74
2022-11-05T18:56:45.736Z,17.14
2022-11-05T18:57:49.091Z,16.54
2022-11-05T18:59:14.780Z,16.99
2022-11-05T18:59:58.115Z,17.40
2022-11-05T19:01:06.345Z,17.33
2022-11-05T19:02:07.551Z,17.69
2022-11-05T19:03:10.602Z,16.75
2022-11-05T19:04:14.434Z,16.49
2022-11-05T19:05:32.944Z,16.09
2022-11-05T19:06:24.440Z,17.05
2022-11-05T19:07:27.421Z,17.58
2022-11-05T19:08:32.023Z,16.44
2022-11-05T19:09:36.360Z,16.69
2022-11-05T19:10:40.786Z,16.25
2022-11-05T19:11:43.705Z,15.21
2022-11-05T19:12:47.117Z,14.51
2022-11-05T19:13:50.180Z,14.14
2022-11-05T19:14:56.692Z,14.63
2022-11-05T19:15:58.020Z,14.93
2022-11-05T19:17:01.676Z,15.18
2022-11-05T19:18:04.687Z,14.55
2022-11-05T19:19:07.678Z,15.26
2022-11-05T19:20:12.671Z,14.26
2022-11-05T19:21:19.048Z,13.74
2022-11-05T19:22:21.961Z,15.27
2022-11-05T19:23:24.844Z,14.79
2022-11-05T19:24:28.108Z,13.39
2022-11-05T19:25:31.405Z,14.18
2022-11-05T19:26:34.403Z,14.71
2022-11-05T19:27:38.287Z,14.06
2022-11-05T19:28:42.527Z,14.33
2022-11-05T19:29:46.824Z,14.66
2022-11-05T19:30:50.285Z,15.23
2022-11-05T19:31:53.168Z,15.41
2022-11-05T19:32:56.733Z,15.46
2022-11-05T19:34:04.866Z,13.98
2022-11-05T19:35:08.566Z,15.38
2022-11-05T19:36:14.817Z,15.11
2022-11-05T19:37:18.655Z,15.82
2022-11-05T19:38:22.141Z,15.88
2022-11-05T19:39:25.452Z,17.19
2022-11-05T19:40:28.409Z,16.89
2022-11-05T19:41:31.319Z,16.60
2022-11-05T19:42:34.180Z,17.84
2022-11-05T19:43:38.584Z,17.84
2022-11-05T19:44:42.565Z,17.70
2022-11-05T19:45:45.661Z,17.55
2022-11-05T19:46:48.627Z,16.98
2022-11-05T19:47:52.026Z,16.69
2022-11-05T19:48:55.200Z,17.41
2022-11-05T19:49:58.025Z,18.14
2022-11-05T19:51:12.101Z,16.86
2022-11-05T19:52:15.118Z,17.19
2022-11-05T19:53:18.206Z,16.97
2022-11-05T19:54:21.856Z,17.28
2022-11-05T19:55:26.155Z,17.00
2022-11-05T19:56:31.623Z,18.51
2022-11-05T19:57:38.366Z,18.92
2022-11-05T19:58:44.305Z,19.97
2022-11-05T19:59:47.493Z,19.46
2022-11-05T20:00:50.592Z,18.66
2022-11-05T20:01:54.189Z,19.01
2022-11-05T20:02:58.131Z,16.67
2022-11-05T20:04:01.912Z,16.42
2022-11-05T20:05:05.532Z,16.29
2022-11-05T20:06:11.632Z,16.25
2022-11-05T20:07:14.739Z,16.94
2022-11-05T20:08:17.728Z,17.13
2022-11-05T20:09:22.970Z,17.03
2022-11-05T20:10:26.082Z,16.56
2022-11-05T20:11:29.399Z,16.59
2022-11-05T20:12:32.451Z,16.54
2022-11-05T20:13:35.841Z,15.44
2022-11-05T20:14:38.730Z,16.34
2022-11-05T20:15:41.797Z,17.02
2022-11-05T20:16:45.900Z,16.91
2022-11-05T20:19:01.865Z,17.04
2022-11-05T20:20:06.608Z,15.89
2022-11-05T20:21:11.071Z,17.62
2022-11-05T20:22:13.987Z,16.83
2022-11-05T20:23:17.220Z,15.26
2022-11-05T20:24:25.257Z,16.92
2022-11-05T20:25:27.118Z,15.88
2022-11-05T20:26:30.409Z,15.74
2022-11-05T20:27:33.303Z,16.79
2022-11-05T20:28:37.591Z,16.00
2022-11-05T20:29:40.599Z,16.95
2022-11-05T20:30:43.597Z,17.04
2022-11-05T20:31:46.766Z,16.19
2022-11-05T20:32:54.782Z,16.82
2022-11-05T20:33:57.908Z,16.77
2022-11-05T20:35:00.771Z,15.59
2022-11-05T20:36:06.372Z,17.91
2022-11-05T20:37:09.358Z,17.23
2022-11-05T20:38:12.934Z,17.55
2022-11-05T20:39:17.178Z,16.92
2022-11-05T20:40:20.245Z,17.65
2022-11-05T20:41:24.222Z,18.27
2022-11-05T20:42:27.323Z,16.96
2022-11-05T20:43:31.167Z,17.45
2022-11-05T20:44:34.365Z,18.62
2022-11-05T20:45:37.865Z,16.61
2022-11-05T20:46:41.045Z,18.73
2022-11-05T20:47:44.204Z,17.96
2022-11-05T20:48:47.755Z,17.82
2022-11-05T20:49:51.316Z,17.80
2022-11-05T20:50:54.433Z,18.31
2022-11-05T20:51:57.347Z,17.61
2022-11-05T20:53:00.688Z,18.58
2022-11-05T20:54:03.734Z,18.71
2022-11-05T20:55:08.781Z,17.89
2022-11-05T20:56:21.103Z,18.00
2022-11-05T20:57:24.234Z,17.62
2022-11-05T20:58:27.615Z,17.45
2022-11-05T20:59:30.703Z,17.04
2022-11-05T21:00:33.851Z,17.35
2022-11-05T21:01:37.016Z,16.69
2022-11-05T21:02:41.288Z,16.95
2022-11-05T21:03:46.343Z,16.79
2022-11-05T21:04:49.421Z,17.59
2022-11-05T21:05:56.529Z,17.39
2022-11-05T21:06:59.507Z,17.19
2022-11-05T21:08:02.697Z,16.06
2022-11-05T21:09:06.188Z,17.29
2022-11-05T21:10:09.600Z,16.75
2022-11-05T21:11:12.548Z,17.11
2022-11-05T21:12:15.728Z,17.42
2022-11-05T21:13:18.958Z,18.20
2022-11-05T21:14:22.100Z,17.66
2022-11-05T21:15:25.111Z,17.64
2022-11-05T21:16:28.379Z,17.43
2022-11-05T21:17:31.330Z,17.66
2022-11-05T21:18:37.370Z,18.60
2022-11-05T21:19:40.751Z,19.17
2022-11-05T21:20:44.315Z,19.30
2022-11-05T21:21:47.253Z,18.59
2022-11-05T21:22:50.242Z,18.21
2022-11-05T21:23:53.100Z,18.76
2022-11-05T21:24:59.128Z,18.19
2022-11-05T21:26:06.843Z,18.34
2022-11-05T21:27:10.462Z,17.99
2022-11-05T21:28:15.750Z,18.07
2022-11-05T21:29:19.005Z,18.67
2022-11-05T21:30:22.294Z,19.29
2022-11-05T21:31:25.187Z,18.88
2022-11-05T21:32:28.040Z,18.42
2022-11-05T21:33:32.778Z,18.39